Khon Kaen, Thailand

3:43 AM ICT on July 30, 2016 (GMT +0700)
Khon Kaen | | Change Station

Elev 633 ft 16.46 °N, 102.79 °E | Updated 43 minutes ago

Mostly Cloudy
Mostly Cloudy
75 °F
Feels Like 75 °F
N
5
Wind Variable Wind from SSW

Today
High -- | Low -- °F
--% Chance of Precip.
Yesterday
High -- | Low -- °F
Precip. -- in
Pressure 29.77 in
Visibility 6.2 miles
Clouds Few 600 ft
Mostly Cloudy 2200 ft
Mostly Cloudy 10000 ft
Dew Point 75 °F
Humidity 100%
Rainfall 0.00 in
Snow Depth Not available.
5:48 AM 6:41 PM
Waning Crescent, 19% visible
METAR VTUK 292000Z 20004KT 150V270 9999 FEW006 BKN022 BKN100 24/24 Q1008 NOSIG
Pressure 29.77 in
Visibility 6.2 miles
Clouds Few 600 ft
Mostly Cloudy 2200 ft
Mostly Cloudy 10000 ft
Dew Point 75 °F
Humidity 100%
Rainfall 0.00 in
Snow Depth Not available.
5:48 AM 6:41 PM
Waning Crescent, 19% visible
METAR VTUK 292000Z 20004KT 150V270 9999 FEW006 BKN022 BKN100 24/24 Q1008 NOSIG

10-Day Weather Forecast

No radar image for this location.
×

Almanac

Astronomy

Jul. 30, 2016 Rise Set
Actual Time
Civil Twilight
Nautical Twilight
Astronomical Twilight
Moon
Length of Visible Light
Length of Day
Tomorrow will be .
, % of the Moon is Illuminated

Today's Extremes

Country Highs Country Lows

Community

WunderPhotos

Upload Photos

1,928,411 photos uploaded!

WunderBlog® & News

Nearby

Air Quality

  Air Quality AQ Index Pollutant
Not available.

Snow Depth

Station Depth Elevation

Earthquake Activity

City Distance Mag. Time & Date
Minimum magnitude displayed is 2.5.

Coastal Water Temperatures

Place Temperature

Stations

Nearby Weather Stations

Station Location Temp. Windchill Dew Point Humidity Wind Precip. Elev Updated Type